LL98 weather

John W Meils Restricted Landing Area
Rutland, Illinois, United States

Public forecast

Using degrees Fahrenheit for public forecast. Weather courtesy of forecast.io.

METAR (pilot weather report)

Closest report is Marshall County Airport, 13.4 nm (24.8 km) WNW. Retrieved 2019/06/27 05:35 UTC (19 minutes ago):

KC75 270535Z AUTO 23007KT 10SM CLR 24/19 A3010 RMK AO2 T02350190

TAF (pilot weather forecast)

Forecast is more than 12 hours old.

Closest forecast is Central Illinois Regional Airport at Bloomington-Normal, 29.3 nm (54.3 km) SSE. Retrieved 2019/06/26 00:36 UTC (1 day ago):

TAF KBMI 262334Z 2700/2724 20009KT P6SM SCT040 BKN200 FM270300 19004KT P6SM BKN200 FM271800 20009KT P6SM SCT250